createdAt,value
2018-06-08T00:00:35.370Z,11.07
2018-06-08T00:03:03.678Z,11.27
2018-06-08T00:05:31.980Z,10.93
2018-06-08T00:08:00.326Z,11.40
2018-06-08T00:10:28.670Z,12.03
2018-06-08T00:12:56.957Z,11.70
2018-06-08T00:15:25.367Z,11.03
2018-06-08T00:17:53.653Z,11.23
2018-06-08T00:20:21.947Z,11.17
2018-06-08T00:22:50.268Z,12.03
2018-06-08T00:25:18.569Z,11.20
2018-06-08T00:27:46.874Z,12.13
2018-06-08T00:30:15.278Z,12.00
2018-06-08T00:32:43.574Z,11.63
2018-06-08T00:35:11.873Z,11.90
2018-06-08T00:37:40.167Z,12.20
2018-06-08T00:40:08.878Z,12.80
2018-06-08T00:42:37.183Z,12.93
2018-06-08T00:45:05.530Z,12.10
2018-06-08T00:47:33.847Z,11.60
2018-06-08T00:50:02.188Z,12.87
2018-06-08T00:52:30.486Z,11.70
2018-06-08T00:54:58.837Z,12.20
2018-06-08T00:57:27.225Z,11.67
2018-06-08T00:59:55.530Z,12.33
2018-06-08T01:02:23.822Z,12.60
2018-06-08T01:04:52.127Z,12.20
2018-06-08T01:07:20.483Z,11.77
2018-06-08T01:09:48.819Z,11.03
2018-06-08T01:12:17.152Z,11.77
2018-06-08T01:14:45.470Z,12.23
2018-06-08T01:17:13.768Z,11.97
2018-06-08T01:19:42.092Z,11.60
2018-06-08T01:22:10.428Z,11.30
2018-06-08T01:24:38.826Z,11.70
2018-06-08T01:27:07.106Z,12.13
2018-06-08T01:29:35.440Z,11.53
2018-06-08T01:32:03.759Z,12.53
2018-06-08T01:34:32.056Z,11.97
2018-06-08T01:37:00.364Z,12.67
2018-06-08T01:39:28.670Z,12.47
2018-06-08T01:41:57.019Z,12.47
2018-06-08T01:44:25.334Z,12.50
2018-06-08T01:46:53.647Z,12.13
2018-06-08T01:49:21.677Z,13.30
2018-06-08T01:51:49.980Z,12.63
2018-06-08T01:54:18.283Z,14.03
2018-06-08T01:56:46.626Z,13.57
2018-06-08T01:59:14.696Z,13.50
2018-06-08T02:01:42.974Z,13.40
2018-06-08T02:04:11.286Z,13.67
2018-06-08T02:06:39.558Z,13.23
2018-06-08T02:09:08.280Z,13.80
2018-06-08T02:11:36.783Z,13.23
2018-06-08T02:14:05.218Z,13.40
2018-06-08T02:16:33.510Z,13.13
2018-06-08T02:19:01.791Z,12.90
2018-06-08T02:21:30.099Z,14.93
2018-06-08T02:23:58.382Z,13.57
2018-06-08T02:26:26.693Z,12.60
2018-06-08T02:28:55.076Z,13.20
2018-06-08T02:31:23.403Z,13.47
2018-06-08T02:33:51.703Z,13.17
2018-06-08T02:36:20.019Z,13.10
2018-06-08T02:38:48.285Z,13.47
2018-06-08T02:41:16.689Z,14.00
2018-06-08T02:43:45.039Z,12.60
2018-06-08T02:46:13.349Z,13.83
2018-06-08T02:48:41.663Z,12.60
2018-06-08T02:51:10.022Z,12.00
2018-06-08T02:53:38.354Z,13.27
2018-06-08T02:56:06.680Z,13.43
2018-06-08T02:58:34.976Z,13.20
2018-06-08T03:01:03.304Z,14.07
2018-06-08T03:03:31.659Z,12.90
2018-06-08T03:06:00.041Z,13.23
2018-06-08T03:08:28.324Z,13.37
2018-06-08T03:10:56.620Z,14.10
2018-06-08T03:13:24.925Z,13.43
2018-06-08T03:15:53.210Z,13.97
2018-06-08T03:18:21.499Z,14.43
2018-06-08T03:20:49.811Z,13.73
2018-06-08T03:23:18.180Z,14.87
2018-06-08T03:25:46.491Z,14.33
2018-06-08T03:28:14.832Z,14.23
2018-06-08T03:30:43.144Z,14.87
2018-06-08T03:33:11.446Z,14.37
2018-06-08T03:35:39.752Z,13.67
2018-06-08T03:38:08.042Z,13.90
2018-06-08T03:40:36.357Z,14.27
2018-06-08T03:43:04.926Z,13.40
2018-06-08T03:45:33.242Z,13.40
2018-06-08T03:48:01.537Z,13.03
2018-06-08T03:50:29.892Z,12.80
2018-06-08T03:52:58.225Z,12.23
2018-06-08T03:55:26.550Z,12.10
2018-06-08T03:57:54.840Z,12.53
2018-06-08T04:00:23.179Z,13.03
2018-06-08T04:02:51.521Z,12.53
2018-06-08T04:05:19.936Z,12.13
2018-06-08T04:07:48.243Z,12.07
2018-06-08T04:10:16.561Z,12.37
2018-06-08T04:12:44.870Z,13.20
2018-06-08T04:15:13.192Z,12.43
2018-06-08T04:17:41.581Z,12.53
2018-06-08T04:20:09.866Z,11.73
2018-06-08T04:22:38.214Z,12.70
2018-06-08T04:25:06.479Z,12.33
2018-06-08T04:27:34.785Z,12.63
2018-06-08T04:30:03.051Z,13.40
2018-06-08T04:32:31.412Z,12.47
2018-06-08T04:34:59.748Z,13.07
2018-06-08T04:37:28.088Z,13.03
2018-06-08T04:39:56.358Z,13.00
2018-06-08T04:42:24.699Z,13.43
2018-06-08T04:44:53.011Z,13.40
2018-06-08T04:47:21.358Z,14.40
2018-06-08T04:49:49.663Z,13.97
2018-06-08T04:52:17.975Z,14.33
2018-06-08T04:54:46.334Z,14.93
2018-06-08T04:57:14.811Z,15.10
2018-06-08T04:59:43.112Z,14.80
2018-06-08T05:02:11.474Z,13.90
2018-06-08T05:04:39.762Z,14.83
2018-06-08T05:07:08.098Z,15.37
2018-06-08T05:09:36.451Z,16.27
2018-06-08T05:12:04.803Z,15.63
2018-06-08T05:14:33.114Z,16.57
2018-06-08T05:17:01.677Z,17.40
2018-06-08T05:19:30.044Z,17.30
2018-06-08T05:21:58.361Z,16.67
2018-06-08T05:24:26.744Z,16.43
2018-06-08T05:26:55.084Z,14.80
2018-06-08T05:29:23.422Z,14.53
2018-06-08T05:31:51.745Z,14.77
2018-06-08T05:34:20.073Z,14.13
2018-06-08T05:36:48.110Z,13.97
2018-06-08T05:39:16.565Z,14.17
2018-06-08T05:41:44.904Z,14.20
2018-06-08T05:44:12.913Z,13.90
2018-06-08T05:46:41.240Z,13.80
2018-06-08T05:49:09.531Z,13.53
2018-06-08T05:51:37.856Z,14.13
2018-06-08T05:54:06.170Z,13.60
2018-06-08T05:56:34.527Z,14.10
2018-06-08T05:59:02.806Z,13.70
2018-06-08T06:01:31.119Z,15.30
2018-06-08T06:03:59.413Z,14.10
2018-06-08T06:06:27.711Z,14.43
2018-06-08T06:08:56.011Z,14.33
2018-06-08T06:11:24.365Z,14.85
2018-06-08T06:13:52.672Z,15.10
2018-06-08T06:16:21.098Z,13.47
2018-06-08T06:18:49.429Z,15.27
2018-06-08T06:21:17.908Z,16.20
2018-06-08T06:23:46.220Z,14.83
2018-06-08T06:26:14.528Z,14.97
2018-06-08T06:28:42.941Z,15.27
2018-06-08T06:31:11.300Z,15.80
2018-06-08T06:33:39.592Z,15.63
2018-06-08T06:36:07.919Z,15.17
2018-06-08T06:38:36.342Z,16.20
2018-06-08T06:41:04.777Z,15.80
2018-06-08T06:43:33.155Z,16.60
2018-06-08T06:46:01.509Z,14.77
2018-06-08T06:48:29.878Z,14.73
2018-06-08T06:50:58.164Z,15.43
2018-06-08T06:53:26.558Z,14.87
2018-06-08T06:55:55.862Z,15.10
2018-06-08T06:58:24.293Z,15.60
2018-06-08T07:00:52.612Z,15.17
2018-06-08T07:03:21.019Z,14.87
2018-06-08T07:05:49.425Z,15.83
2018-06-08T07:08:22.543Z,15.90
2018-06-08T07:10:50.852Z,15.20
2018-06-08T07:13:19.443Z,14.97
2018-06-08T07:15:47.875Z,13.57
2018-06-08T07:18:15.949Z,15.23
2018-06-08T07:20:52.291Z,15.67
2018-06-08T07:23:22.574Z,14.73
2018-06-08T07:25:50.897Z,15.53
2018-06-08T07:28:19.259Z,15.23
2018-06-08T07:30:47.612Z,14.60
2018-06-08T07:33:15.996Z,14.47
2018-06-08T07:35:44.313Z,13.63
2018-06-08T07:38:12.648Z,14.97
2018-06-08T07:40:40.996Z,14.77
2018-06-08T07:43:09.333Z,15.00
2018-06-08T07:45:37.959Z,13.67
2018-06-08T07:48:06.811Z,14.80
2018-06-08T07:50:35.121Z,16.20
2018-06-08T07:53:03.461Z,16.40
2018-06-08T07:55:31.801Z,15.40
2018-06-08T07:58:00.128Z,15.77
2018-06-08T08:00:28.456Z,14.27
2018-06-08T08:02:57.183Z,15.40
2018-06-08T08:05:25.779Z,14.77
2018-06-08T08:07:54.166Z,14.47
2018-06-08T08:10:22.555Z,14.17
2018-06-08T08:12:50.932Z,14.60
2018-06-08T08:15:19.357Z,13.10
2018-06-08T08:17:47.740Z,13.63
2018-06-08T08:20:16.059Z,13.13
2018-06-08T08:22:44.341Z,12.47
2018-06-08T08:25:12.644Z,13.70
2018-06-08T08:27:41.095Z,13.17
2018-06-08T08:30:09.440Z,12.97
2018-06-08T08:32:37.791Z,12.40
2018-06-08T08:35:06.136Z,11.83
2018-06-08T08:37:41.090Z,13.50
2018-06-08T08:40:09.572Z,12.07
2018-06-08T08:42:38.078Z,11.83
2018-06-08T08:45:06.470Z,12.07
2018-06-08T08:47:35.112Z,11.47
2018-06-08T08:50:03.497Z,12.67
2018-06-08T08:52:31.887Z,11.43
2018-06-08T08:55:00.287Z,12.50
2018-06-08T08:57:28.647Z,11.57
2018-06-08T08:59:56.952Z,11.67
2018-06-08T09:02:25.292Z,12.15
2018-06-08T09:04:53.603Z,11.80
2018-06-08T09:07:21.968Z,11.53
2018-06-08T09:09:50.453Z,11.37
2018-06-08T09:12:18.793Z,11.70
2018-06-08T09:14:47.104Z,11.50
2018-06-08T09:17:15.419Z,11.67
2018-06-08T09:19:43.558Z,11.13
2018-06-08T09:22:11.880Z,10.63
2018-06-08T09:24:40.183Z,12.20
2018-06-08T09:27:08.487Z,11.70
2018-06-08T09:29:36.827Z,11.07
2018-06-08T09:32:05.148Z,12.07
2018-06-08T09:34:33.485Z,11.50
2018-06-08T09:37:01.804Z,11.63
2018-06-08T09:39:30.172Z,12.58
2018-06-08T09:41:58.462Z,11.40
2018-06-08T09:44:26.777Z,11.23
2018-06-08T09:46:55.130Z,10.93
2018-06-08T09:49:23.466Z,11.20
2018-06-08T09:51:51.813Z,11.47
2018-06-08T09:54:20.304Z,11.10
2018-06-08T09:56:48.659Z,11.53
2018-06-08T09:59:16.702Z,10.47
2018-06-08T10:01:45.029Z,11.50
2018-06-08T10:04:13.359Z,10.77
2018-06-08T10:06:41.960Z,10.30
2018-06-08T10:09:10.325Z,10.00
2018-06-08T10:11:38.664Z,10.37
2018-06-08T10:14:06.959Z,9.57
2018-06-08T10:16:35.283Z,9.07
2018-06-08T10:19:03.653Z,9.27
2018-06-08T10:21:31.664Z,9.27
2018-06-08T10:23:59.968Z,9.07
2018-06-08T10:26:28.263Z,9.30
2018-06-08T10:28:56.647Z,9.23
2018-06-08T10:31:24.958Z,9.60
2018-06-08T10:33:53.314Z,9.57
2018-06-08T10:36:21.643Z,10.10
2018-06-08T10:38:50.022Z,8.70
2018-06-08T10:41:18.332Z,8.93
2018-06-08T10:43:46.682Z,9.07
2018-06-08T10:46:14.987Z,10.00
2018-06-08T10:48:43.356Z,9.83
2018-06-08T10:51:11.773Z,9.97
2018-06-08T10:53:40.130Z,9.53
2018-06-08T10:56:08.444Z,9.50
2018-06-08T10:58:36.806Z,8.90
2018-06-08T11:01:05.100Z,8.60
2018-06-08T11:03:33.436Z,7.87
2018-06-08T11:06:01.752Z,8.03
2018-06-08T11:08:30.130Z,8.30
2018-06-08T11:10:58.463Z,8.00
2018-06-08T11:13:26.816Z,8.30
2018-06-08T11:15:55.136Z,8.77
2018-06-08T11:18:23.220Z,8.70
2018-06-08T11:20:51.496Z,9.70
2018-06-08T11:23:19.825Z,8.83
2018-06-08T11:25:48.170Z,7.80
2018-06-08T11:28:16.894Z,8.33
2018-06-08T11:30:45.209Z,8.33
2018-06-08T11:33:13.486Z,7.43
2018-06-08T11:35:41.879Z,8.13
2018-06-08T11:38:10.206Z,7.93
2018-06-08T11:40:38.556Z,8.53
2018-06-08T11:43:06.915Z,8.10
2018-06-08T11:45:35.366Z,8.20
2018-06-08T11:48:03.777Z,8.80
2018-06-08T11:50:32.237Z,8.27
2018-06-08T11:53:00.524Z,9.30
2018-06-08T11:55:28.860Z,8.23
2018-06-08T11:57:56.896Z,9.23
2018-06-08T12:00:25.217Z,8.10
2018-06-08T12:02:53.551Z,9.20
2018-06-08T12:05:21.888Z,8.57
2018-06-08T12:07:50.236Z,8.30
2018-06-08T12:10:18.713Z,7.97
2018-06-08T12:12:47.028Z,8.40
2018-06-08T12:15:15.360Z,9.33
2018-06-08T12:17:43.659Z,8.73
2018-06-08T12:20:11.734Z,8.50
2018-06-08T12:22:40.044Z,9.17
2018-06-08T12:25:08.372Z,8.40
2018-06-08T12:27:36.691Z,8.53
2018-06-08T12:30:05.066Z,8.67
2018-06-08T12:32:33.552Z,8.57
2018-06-08T12:35:01.854Z,8.10
2018-06-08T12:37:30.174Z,7.90
2018-06-08T12:39:58.532Z,8.83
2018-06-08T12:42:26.867Z,8.73
2018-06-08T12:44:55.205Z,7.90
2018-06-08T12:47:23.557Z,8.60
2018-06-08T12:49:51.954Z,8.70
2018-06-08T12:52:20.279Z,8.60
2018-06-08T12:54:48.638Z,8.97
2018-06-08T12:57:16.970Z,7.83
2018-06-08T12:59:45.348Z,7.70
2018-06-08T13:02:13.728Z,7.57
2018-06-08T13:04:42.068Z,8.53
2018-06-08T13:07:10.373Z,8.30
2018-06-08T13:09:38.778Z,8.93
2018-06-08T13:12:07.126Z,8.57
2018-06-08T13:14:35.498Z,7.90
2018-06-08T13:17:03.870Z,7.90
2018-06-08T13:19:32.218Z,9.00
2018-06-08T13:22:00.586Z,8.37
2018-06-08T13:24:28.910Z,8.13
2018-06-08T13:26:57.236Z,8.03
2018-06-08T13:29:25.263Z,8.17
2018-06-08T13:31:53.570Z,8.37
2018-06-08T13:34:21.698Z,8.35
2018-06-08T13:36:50.000Z,7.87
2018-06-08T13:39:18.328Z,7.97
2018-06-08T13:41:46.671Z,8.00
2018-06-08T13:44:14.885Z,7.57
2018-06-08T13:46:46.353Z,7.15
2018-06-08T13:49:14.750Z,7.53
2018-06-08T13:51:43.079Z,8.08
2018-06-08T13:54:11.367Z,7.90
2018-06-08T13:56:46.514Z,8.13
2018-06-08T13:59:14.900Z,8.25
2018-06-08T14:01:43.187Z,7.80
2018-06-08T14:04:11.495Z,7.53
2018-06-08T14:06:39.889Z,8.05
2018-06-08T14:09:08.225Z,7.47
2018-06-08T14:11:36.566Z,7.62
2018-06-08T14:14:04.887Z,7.33
2018-06-08T14:16:33.250Z,7.37
2018-06-08T14:19:01.570Z,7.28
2018-06-08T14:21:29.900Z,7.62
2018-06-08T14:23:58.239Z,7.53
2018-06-08T14:26:26.602Z,7.37
2018-06-08T14:28:55.196Z,7.10
2018-06-08T14:31:23.564Z,7.75
2018-06-08T14:33:51.875Z,7.00
2018-06-08T14:36:20.180Z,6.70
2018-06-08T14:38:48.542Z,7.42
2018-06-08T14:41:16.891Z,6.97
2018-06-08T14:43:45.293Z,7.17
2018-06-08T14:46:13.623Z,7.58
2018-06-08T14:48:41.937Z,7.65
2018-06-08T14:51:10.271Z,7.42
2018-06-08T14:53:38.599Z,7.15
2018-06-08T14:56:06.952Z,6.90
2018-06-08T14:58:34.999Z,7.67
2018-06-08T15:01:03.340Z,7.55
2018-06-08T15:03:31.642Z,7.28
2018-06-08T15:05:59.987Z,7.12
2018-06-08T15:08:28.349Z,7.45
2018-06-08T15:10:56.653Z,7.35
2018-06-08T15:13:25.070Z,7.25
2018-06-08T15:15:53.391Z,7.62
2018-06-08T15:18:21.681Z,7.25
2018-06-08T15:20:50.017Z,6.95
2018-06-08T15:23:18.338Z,7.62
2018-06-08T15:25:46.727Z,7.25
2018-06-08T15:28:15.058Z,7.72
2018-06-08T15:30:43.413Z,7.05
2018-06-08T15:33:11.470Z,7.55
2018-06-08T15:35:39.792Z,8.03
2018-06-08T15:38:08.094Z,7.28
2018-06-08T15:40:36.493Z,7.60
2018-06-08T15:43:04.843Z,7.42
2018-06-08T15:45:33.198Z,7.67
2018-06-08T15:48:01.534Z,7.87
2018-06-08T15:50:29.899Z,7.78
2018-06-08T15:52:58.238Z,7.60
2018-06-08T15:55:26.571Z,8.33
2018-06-08T15:57:54.919Z,7.70
2018-06-08T16:00:23.255Z,6.80
2018-06-08T16:02:51.597Z,7.80
2018-06-08T16:05:19.960Z,8.40
2018-06-08T16:07:48.353Z,7.65
2018-06-08T16:10:16.726Z,7.05
2018-06-08T16:12:45.037Z,7.28
2018-06-08T16:15:13.367Z,7.37
2018-06-08T16:17:41.720Z,7.67
2018-06-08T16:20:10.035Z,8.48
2018-06-08T16:22:38.425Z,7.60
2018-06-08T16:25:06.814Z,8.58
2018-06-08T16:27:34.859Z,8.75
2018-06-08T16:30:03.429Z,8.70
2018-06-08T16:32:31.890Z,9.65
2018-06-08T16:35:00.267Z,9.35
2018-06-08T16:37:28.622Z,9.23
2018-06-08T16:39:56.955Z,9.30
2018-06-08T16:42:25.314Z,9.53
2018-06-08T16:44:53.657Z,9.33
2018-06-08T16:47:22.062Z,9.35
2018-06-08T16:49:52.283Z,9.60
2018-06-08T16:52:20.643Z,11.30
2018-06-08T16:54:49.017Z,9.83
2018-06-08T16:57:17.347Z,11.30
2018-06-08T16:59:45.734Z,10.23
2018-06-08T17:02:14.388Z,9.83
2018-06-08T17:04:42.435Z,10.23
2018-06-08T17:07:10.642Z,10.30
2018-06-08T17:09:38.961Z,9.93
2018-06-08T17:12:07.332Z,10.23
2018-06-08T17:14:35.769Z,10.23
2018-06-08T17:17:04.233Z,10.67
2018-06-08T17:19:32.304Z,10.10
2018-06-08T17:22:00.374Z,10.50
2018-06-08T17:24:28.489Z,11.07
2018-06-08T17:26:56.931Z,10.40
2018-06-08T17:29:24.988Z,10.40
2018-06-08T17:31:53.069Z,10.37
2018-06-08T17:34:21.183Z,10.97
2018-06-08T17:36:49.631Z,10.60
2018-06-08T17:39:17.983Z,10.67
2018-06-08T17:41:46.159Z,11.03
2018-06-08T17:44:14.282Z,10.80
2018-06-08T17:46:42.644Z,10.30
2018-06-08T17:49:10.998Z,10.20
2018-06-08T17:51:39.176Z,10.10
2018-06-08T17:54:07.249Z,10.10
2018-06-08T17:56:35.315Z,10.03
2018-06-08T17:59:03.427Z,9.53
2018-06-08T18:01:31.801Z,11.17
2018-06-08T18:04:00.457Z,10.43
2018-06-08T18:06:28.831Z,10.90
2018-06-08T18:08:56.860Z,11.60
2018-06-08T18:11:25.323Z,10.73
2018-06-08T18:13:53.866Z,10.40
2018-06-08T18:16:22.167Z,11.20
2018-06-08T18:18:58.510Z,10.93
2018-06-08T18:21:28.008Z,11.10
2018-06-08T18:23:56.352Z,11.20
2018-06-08T18:26:25.328Z,10.87
2018-06-08T18:28:55.071Z,17.33
2018-06-08T18:31:25.253Z,15.27
2018-06-08T18:33:55.911Z,11.37
2018-06-08T18:36:24.343Z,11.40
2018-06-08T18:38:52.816Z,10.67
2018-06-08T18:41:21.135Z,10.97
2018-06-08T18:43:49.598Z,13.67
2018-06-08T18:46:17.987Z,12.20
2018-06-08T18:48:46.402Z,11.20
2018-06-08T18:51:14.742Z,12.37
2018-06-08T18:53:43.104Z,21.17
2018-06-08T18:56:11.492Z,11.53
2018-06-08T18:58:39.941Z,8.83
2018-06-08T19:01:08.288Z,8.43
2018-06-08T19:03:36.623Z,9.63
2018-06-08T19:06:04.939Z,9.13
2018-06-08T19:08:33.319Z,9.97
2018-06-08T19:11:01.672Z,11.63
2018-06-08T19:13:30.051Z,12.00
2018-06-08T19:15:58.382Z,9.17
2018-06-08T19:18:26.775Z,8.57
2018-06-08T19:20:55.096Z,8.33
2018-06-08T19:23:23.525Z,8.67
2018-06-08T19:25:51.887Z,7.50
2018-06-08T19:28:20.255Z,7.50
2018-06-08T19:30:48.694Z,6.87
2018-06-08T19:33:17.092Z,6.30
2018-06-08T19:35:45.411Z,6.10
2018-06-08T19:38:13.842Z,6.70
2018-06-08T19:40:42.143Z,5.93
2018-06-08T19:43:10.494Z,6.37
2018-06-08T19:45:38.835Z,6.37
2018-06-08T19:48:07.229Z,6.97
2018-06-08T19:50:35.690Z,6.50
2018-06-08T19:53:04.047Z,6.40
2018-06-08T19:55:32.407Z,7.07
2018-06-08T19:58:00.819Z,7.60
2018-06-08T20:00:29.108Z,8.40
2018-06-08T20:02:57.451Z,9.20
2018-06-08T20:05:25.793Z,9.13
2018-06-08T20:07:54.200Z,9.80
2018-06-08T20:10:23.336Z,10.00
2018-06-08T20:12:52.374Z,11.07
2018-06-08T20:15:20.733Z,10.50
2018-06-08T20:17:49.176Z,10.07
2018-06-08T20:20:17.525Z,10.00
2018-06-08T20:22:45.937Z,9.83
2018-06-08T20:25:14.235Z,9.30
2018-06-08T20:27:42.694Z,9.40
2018-06-08T20:30:10.998Z,9.03
2018-06-08T20:32:39.498Z,9.00
2018-06-08T20:35:07.819Z,8.70
2018-06-08T20:37:36.278Z,9.00
2018-06-08T20:40:04.748Z,9.10
2018-06-08T20:42:33.209Z,9.07
2018-06-08T20:45:01.582Z,8.40
2018-06-08T20:47:30.001Z,9.30
2018-06-08T20:49:58.483Z,9.07
2018-06-08T20:52:26.867Z,9.23
2018-06-08T20:54:55.217Z,8.60
2018-06-08T20:57:26.271Z,9.37
2018-06-08T20:59:54.739Z,8.87
2018-06-08T21:02:23.351Z,8.97
2018-06-08T21:04:51.652Z,8.80
2018-06-08T21:07:20.053Z,8.67
2018-06-08T21:09:48.586Z,9.03
2018-06-08T21:12:17.043Z,8.93
2018-06-08T21:14:45.503Z,8.83
2018-06-08T21:17:13.840Z,7.70
2018-06-08T21:19:42.188Z,7.47
2018-06-08T21:22:10.532Z,7.40
2018-06-08T21:24:39.353Z,8.37
2018-06-08T21:27:07.771Z,8.27
2018-06-08T21:29:36.224Z,7.50
2018-06-08T21:32:04.871Z,8.40
2018-06-08T21:34:33.378Z,8.87
2018-06-08T21:37:01.712Z,9.30
2018-06-08T21:39:30.236Z,7.60
2018-06-08T21:41:58.615Z,7.80
2018-06-08T21:44:26.996Z,7.30
2018-06-08T21:46:55.365Z,8.73
2018-06-08T21:49:23.810Z,8.00
2018-06-08T21:51:52.147Z,7.60
2018-06-08T21:54:20.527Z,8.03
2018-06-08T21:56:48.891Z,8.37
2018-06-08T21:59:17.285Z,8.67
2018-06-08T22:01:45.714Z,7.90
2018-06-08T22:04:14.135Z,8.40
2018-06-08T22:06:42.453Z,8.83
2018-06-08T22:09:10.908Z,9.37
2018-06-08T22:11:39.255Z,8.50
2018-06-08T22:14:07.641Z,8.87
2018-06-08T22:16:36.024Z,9.87
2018-06-08T22:19:04.386Z,10.57
2018-06-08T22:21:32.762Z,8.93
2018-06-08T22:24:01.112Z,9.13
2018-06-08T22:26:29.437Z,9.37
2018-06-08T22:28:57.734Z,8.90
2018-06-08T22:31:26.136Z,10.20
2018-06-08T22:33:54.520Z,9.40
2018-06-08T22:36:22.916Z,15.00
2018-06-08T22:38:51.288Z,8.93
2018-06-08T22:41:19.686Z,9.60
2018-06-08T22:43:47.994Z,9.27
2018-06-08T22:46:16.307Z,8.77
2018-06-08T22:48:44.598Z,9.40
2018-06-08T22:51:12.967Z,8.70
2018-06-08T22:53:41.386Z,9.33
2018-06-08T22:56:09.736Z,9.50
2018-06-08T22:58:38.060Z,9.30
2018-06-08T23:01:06.118Z,9.03
2018-06-08T23:03:34.488Z,8.70
2018-06-08T23:06:02.862Z,9.20
2018-06-08T23:08:31.166Z,9.57
2018-06-08T23:10:59.200Z,9.33
2018-06-08T23:13:27.491Z,10.53
2018-06-08T23:15:55.882Z,9.23
2018-06-08T23:18:23.905Z,10.77
2018-06-08T23:20:52.320Z,10.43
2018-06-08T23:23:20.719Z,10.40
2018-06-08T23:25:48.835Z,9.73
2018-06-08T23:28:17.152Z,10.73
2018-06-08T23:30:45.507Z,10.47
2018-06-08T23:33:13.856Z,10.50
2018-06-08T23:35:42.309Z,10.57
2018-06-08T23:38:10.337Z,10.97
2018-06-08T23:40:38.722Z,11.10
2018-06-08T23:43:07.042Z,10.87
2018-06-08T23:45:35.170Z,11.73
2018-06-08T23:48:03.470Z,11.27
2018-06-08T23:50:31.921Z,12.00
2018-06-08T23:53:00.248Z,11.17
2018-06-08T23:55:28.543Z,11.60
2018-06-08T23:57:56.829Z,12.37
